sensor_id;sensor_type;location;lat;lon;timestamp;P1;durP1;ratioP1;P2;durP2;ratioP2
7177;SDS011;3630;42.146;24.756;2023-02-01T00:00:29;5.63;;;5.03;;
7177;SDS011;3630;42.146;24.756;2023-02-01T00:02:58;8.37;;;4.97;;
7177;SDS011;3630;42.146;24.756;2023-02-01T00:05:25;6.57;;;5.37;;
7177;SDS011;3630;42.146;24.756;2023-02-01T00:07:52;4.87;;;4.47;;
7177;SDS011;3630;42.146;24.756;2023-02-01T00:10:19;5.20;;;4.70;;
7177;SDS011;3630;42.146;24.756;2023-02-01T00:12:46;5.57;;;4.57;;
7177;SDS011;3630;42.146;24.756;2023-02-01T00:15:13;5.10;;;4.60;;
7177;SDS011;3630;42.146;24.756;2023-02-01T00:17:41;5.37;;;4.53;;
7177;SDS011;3630;42.146;24.756;2023-02-01T00:20:09;6.63;;;5.40;;
7177;SDS011;3630;42.146;24.756;2023-02-01T00:22:39;5.70;;;4.43;;
7177;SDS011;3630;42.146;24.756;2023-02-01T00:25:06;4.60;;;4.20;;
7177;SDS011;3630;42.146;24.756;2023-02-01T00:27:34;5.77;;;4.57;;
7177;SDS011;3630;42.146;24.756;2023-02-01T00:30:00;5.07;;;4.57;;
7177;SDS011;3630;42.146;24.756;2023-02-01T00:32:27;5.67;;;5.03;;
7177;SDS011;3630;42.146;24.756;2023-02-01T00:34:55;5.13;;;4.60;;
7177;SDS011;3630;42.146;24.756;2023-02-01T00:37:22;4.63;;;4.23;;
7177;SDS011;3630;42.146;24.756;2023-02-01T00:39:49;4.93;;;4.43;;
7177;SDS011;3630;42.146;24.756;2023-02-01T00:42:16;5.70;;;4.33;;
7177;SDS011;3630;42.146;24.756;2023-02-01T00:44:42;7.50;;;4.77;;
7177;SDS011;3630;42.146;24.756;2023-02-01T00:47:09;4.73;;;4.33;;
7177;SDS011;3630;42.146;24.756;2023-02-01T00:49:36;5.38;;;4.85;;
7177;SDS011;3630;42.146;24.756;2023-02-01T00:52:04;5.87;;;4.17;;
7177;SDS011;3630;42.146;24.756;2023-02-01T00:54:31;4.63;;;4.23;;
7177;SDS011;3630;42.146;24.756;2023-02-01T00:56:59;6.03;;;4.37;;
7177;SDS011;3630;42.146;24.756;2023-02-01T00:59:26;6.97;;;4.60;;
7177;SDS011;3630;42.146;24.756;2023-02-01T01:01:53;6.70;;;4.60;;
7177;SDS011;3630;42.146;24.756;2023-02-01T01:04:19;5.07;;;4.50;;
7177;SDS011;3630;42.146;24.756;2023-02-01T01:06:46;4.67;;;4.17;;
7177;SDS011;3630;42.146;24.756;2023-02-01T01:09:14;6.00;;;4.83;;
7177;SDS011;3630;42.146;24.756;2023-02-01T01:11:41;5.77;;;4.37;;
7177;SDS011;3630;42.146;24.756;2023-02-01T01:14:08;5.43;;;4.10;;
7177;SDS011;3630;42.146;24.756;2023-02-01T01:16:35;5.97;;;4.87;;
7177;SDS011;3630;42.146;24.756;2023-02-01T01:19:02;4.77;;;4.33;;
7177;SDS011;3630;42.146;24.756;2023-02-01T01:21:30;4.47;;;4.07;;
7177;SDS011;3630;42.146;24.756;2023-02-01T01:23:57;4.57;;;4.17;;
7177;SDS011;3630;42.146;24.756;2023-02-01T01:26:26;4.70;;;4.30;;
7177;SDS011;3630;42.146;24.756;2023-02-01T01:28:54;4.43;;;4.07;;
7177;SDS011;3630;42.146;24.756;2023-02-01T01:31:22;4.40;;;4.00;;
7177;SDS011;3630;42.146;24.756;2023-02-01T01:33:49;5.43;;;4.23;;
7177;SDS011;3630;42.146;24.756;2023-02-01T01:36:18;4.87;;;4.37;;
7177;SDS011;3630;42.146;24.756;2023-02-01T01:38:45;4.50;;;4.10;;
7177;SDS011;3630;42.146;24.756;2023-02-01T01:41:13;5.30;;;4.80;;
7177;SDS011;3630;42.146;24.756;2023-02-01T01:46:29;4.43;;;4.03;;
7177;SDS011;3630;42.146;24.756;2023-02-01T01:49:02;6.50;;;4.47;;
7177;SDS011;3630;42.146;24.756;2023-02-01T01:51:35;4.47;;;4.00;;
7177;SDS011;3630;42.146;24.756;2023-02-01T01:54:07;5.60;;;3.70;;
7177;SDS011;3630;42.146;24.756;2023-02-01T01:56:38;4.20;;;3.80;;
7177;SDS011;3630;42.146;24.756;2023-02-01T01:59:08;5.93;;;4.27;;
7177;SDS011;3630;42.146;24.756;2023-02-01T02:01:35;4.57;;;4.17;;
7177;SDS011;3630;42.146;24.756;2023-02-01T02:04:02;4.20;;;3.80;;
7177;SDS011;3630;42.146;24.756;2023-02-01T02:06:34;4.60;;;4.20;;
7177;SDS011;3630;42.146;24.756;2023-02-01T02:09:06;6.37;;;4.30;;
7177;SDS011;3630;42.146;24.756;2023-02-01T02:11:33;4.83;;;4.33;;
7177;SDS011;3630;42.146;24.756;2023-02-01T02:14:00;4.83;;;4.43;;
7177;SDS011;3630;42.146;24.756;2023-02-01T02:16:36;7.17;;;4.07;;
7177;SDS011;3630;42.146;24.756;2023-02-01T02:22:10;4.60;;;4.00;;
7177;SDS011;3630;42.146;24.756;2023-02-01T02:25:03;4.47;;;4.07;;
7177;SDS011;3630;42.146;24.756;2023-02-01T02:27:52;8.13;;;4.00;;
7177;SDS011;3630;42.146;24.756;2023-02-01T02:30:39;4.47;;;4.07;;
7177;SDS011;3630;42.146;24.756;2023-02-01T02:36:15;4.60;;;4.07;;
7177;SDS011;3630;42.146;24.756;2023-02-01T02:38:47;4.20;;;3.80;;
7177;SDS011;3630;42.146;24.756;2023-02-01T02:41:20;6.47;;;3.77;;
7177;SDS011;3630;42.146;24.756;2023-02-01T02:44:13;4.67;;;3.70;;
7177;SDS011;3630;42.146;24.756;2023-02-01T02:47:05;4.10;;;3.43;;
7177;SDS011;3630;42.146;24.756;2023-02-01T02:49:56;5.50;;;4.13;;
7177;SDS011;3630;42.146;24.756;2023-02-01T02:52:46;4.87;;;4.37;;
7177;SDS011;3630;42.146;24.756;2023-02-01T02:55:35;4.13;;;3.73;;
7177;SDS011;3630;42.146;24.756;2023-02-01T02:58:05;5.57;;;4.17;;
7177;SDS011;3630;42.146;24.756;2023-02-01T03:00:51;6.83;;;4.07;;
7177;SDS011;3630;42.146;24.756;2023-02-01T03:03:38;5.50;;;3.90;;
7177;SDS011;3630;42.146;24.756;2023-02-01T03:06:24;6.33;;;4.43;;
7177;SDS011;3630;42.146;24.756;2023-02-01T03:08:52;5.20;;;4.03;;
7177;SDS011;3630;42.146;24.756;2023-02-01T03:11:23;4.83;;;4.33;;
7177;SDS011;3630;42.146;24.756;2023-02-01T03:14:12;5.10;;;4.47;;
7177;SDS011;3630;42.146;24.756;2023-02-01T03:16:43;5.27;;;4.27;;
7177;SDS011;3630;42.146;24.756;2023-02-01T03:19:15;4.53;;;4.13;;
7177;SDS011;3630;42.146;24.756;2023-02-01T03:21:48;5.40;;;4.80;;
7177;SDS011;3630;42.146;24.756;2023-02-01T03:24:21;6.77;;;4.60;;
7177;SDS011;3630;42.146;24.756;2023-02-01T03:26:58;7.20;;;4.77;;
7177;SDS011;3630;42.146;24.756;2023-02-01T03:29:33;6.65;;;5.15;;
7177;SDS011;3630;42.146;24.756;2023-02-01T03:32:06;7.13;;;5.03;;
7177;SDS011;3630;42.146;24.756;2023-02-01T03:34:34;5.43;;;4.87;;
7177;SDS011;3630;42.146;24.756;2023-02-01T03:37:03;5.83;;;5.23;;
7177;SDS011;3630;42.146;24.756;2023-02-01T03:39:34;6.93;;;4.97;;
7177;SDS011;3630;42.146;24.756;2023-02-01T03:42:05;5.40;;;4.90;;
7177;SDS011;3630;42.146;24.756;2023-02-01T03:44:36;8.03;;;5.67;;
7177;SDS011;3630;42.146;24.756;2023-02-01T03:47:08;6.10;;;5.50;;
7177;SDS011;3630;42.146;24.756;2023-02-01T03:49:39;6.23;;;5.57;;
7177;SDS011;3630;42.146;24.756;2023-02-01T03:52:11;6.80;;;5.27;;
7177;SDS011;3630;42.146;24.756;2023-02-01T03:54:41;6.27;;;5.73;;
7177;SDS011;3630;42.146;24.756;2023-02-01T03:57:09;6.13;;;5.50;;
7177;SDS011;3630;42.146;24.756;2023-02-01T03:59:40;8.43;;;6.43;;
7177;SDS011;3630;42.146;24.756;2023-02-01T04:02:07;8.50;;;6.33;;
7177;SDS011;3630;42.146;24.756;2023-02-01T04:04:34;8.43;;;5.63;;
7177;SDS011;3630;42.146;24.756;2023-02-01T04:07:01;7.30;;;5.63;;
7177;SDS011;3630;42.146;24.756;2023-02-01T04:09:30;6.47;;;5.70;;
7177;SDS011;3630;42.146;24.756;2023-02-01T04:11:56;7.70;;;5.77;;
7177;SDS011;3630;42.146;24.756;2023-02-01T04:14:23;7.50;;;6.17;;
7177;SDS011;3630;42.146;24.756;2023-02-01T04:16:50;7.97;;;5.73;;
7177;SDS011;3630;42.146;24.756;2023-02-01T04:19:17;7.37;;;5.90;;
7177;SDS011;3630;42.146;24.756;2023-02-01T04:21:44;7.17;;;6.43;;
7177;SDS011;3630;42.146;24.756;2023-02-01T04:24:10;7.27;;;6.57;;
7177;SDS011;3630;42.146;24.756;2023-02-01T04:26:39;6.83;;;6.10;;
7177;SDS011;3630;42.146;24.756;2023-02-01T04:29:05;7.33;;;6.57;;
7177;SDS011;3630;42.146;24.756;2023-02-01T04:31:32;7.80;;;6.33;;
7177;SDS011;3630;42.146;24.756;2023-02-01T04:34:01;7.70;;;6.70;;
7177;SDS011;3630;42.146;24.756;2023-02-01T04:36:28;7.57;;;6.57;;
7177;SDS011;3630;42.146;24.756;2023-02-01T04:38:54;7.30;;;6.60;;
7177;SDS011;3630;42.146;24.756;2023-02-01T04:41:21;9.73;;;6.83;;
7177;SDS011;3630;42.146;24.756;2023-02-01T04:43:49;7.72;;;7.03;;
7177;SDS011;3630;42.146;24.756;2023-02-01T04:46:17;7.57;;;6.63;;
7177;SDS011;3630;42.146;24.756;2023-02-01T04:48:44;8.27;;;6.23;;
7177;SDS011;3630;42.146;24.756;2023-02-01T04:51:11;7.97;;;6.50;;
7177;SDS011;3630;42.146;24.756;2023-02-01T04:53:38;8.10;;;6.80;;
7177;SDS011;3630;42.146;24.756;2023-02-01T04:56:05;5.90;;;5.40;;
7177;SDS011;3630;42.146;24.756;2023-02-01T04:58:33;7.10;;;6.40;;
7177;SDS011;3630;42.146;24.756;2023-02-01T05:01:03;6.63;;;5.67;;
7177;SDS011;3630;42.146;24.756;2023-02-01T05:03:30;8.57;;;6.67;;
7177;SDS011;3630;42.146;24.756;2023-02-01T05:05:57;7.07;;;6.30;;
7177;SDS011;3630;42.146;24.756;2023-02-01T05:08:24;6.53;;;5.47;;
7177;SDS011;3630;42.146;24.756;2023-02-01T05:10:52;6.07;;;5.47;;
7177;SDS011;3630;42.146;24.756;2023-02-01T05:13:19;6.50;;;5.70;;
7177;SDS011;3630;42.146;24.756;2023-02-01T05:16:05;6.80;;;6.10;;
7177;SDS011;3630;42.146;24.756;2023-02-01T05:18:32;6.00;;;5.40;;
7177;SDS011;3630;42.146;24.756;2023-02-01T05:20:59;6.43;;;5.20;;
7177;SDS011;3630;42.146;24.756;2023-02-01T05:23:26;6.33;;;5.50;;
7177;SDS011;3630;42.146;24.756;2023-02-01T05:25:57;5.67;;;5.10;;
7177;SDS011;3630;42.146;24.756;2023-02-01T05:28:24;6.37;;;5.30;;
7177;SDS011;3630;42.146;24.756;2023-02-01T05:30:51;7.25;;;5.65;;
7177;SDS011;3630;42.146;24.756;2023-02-01T05:33:19;6.07;;;5.47;;
7177;SDS011;3630;42.146;24.756;2023-02-01T05:35:46;5.70;;;4.80;;
7177;SDS011;3630;42.146;24.756;2023-02-01T05:38:13;7.83;;;6.00;;
7177;SDS011;3630;42.146;24.756;2023-02-01T05:40:40;7.80;;;5.40;;
7177;SDS011;3630;42.146;24.756;2023-02-01T05:43:06;11.10;;;5.50;;
7177;SDS011;3630;42.146;24.756;2023-02-01T05:45:33;6.00;;;5.40;;
7177;SDS011;3630;42.146;24.756;2023-02-01T05:48:00;9.27;;;6.00;;
7177;SDS011;3630;42.146;24.756;2023-02-01T05:50:28;12.53;;;6.33;;
7177;SDS011;3630;42.146;24.756;2023-02-01T05:52:55;8.90;;;6.23;;
7177;SDS011;3630;42.146;24.756;2023-02-01T05:55:22;6.13;;;5.40;;
7177;SDS011;3630;42.146;24.756;2023-02-01T05:57:48;6.87;;;6.03;;
7177;SDS011;3630;42.146;24.756;2023-02-01T06:00:16;5.43;;;4.93;;
7177;SDS011;3630;42.146;24.756;2023-02-01T06:02:43;5.77;;;5.10;;
7177;SDS011;3630;42.146;24.756;2023-02-01T06:05:10;7.53;;;4.80;;
7177;SDS011;3630;42.146;24.756;2023-02-01T06:07:38;4.50;;;4.10;;
7177;SDS011;3630;42.146;24.756;2023-02-01T06:10:05;5.77;;;4.57;;
7177;SDS011;3630;42.146;24.756;2023-02-01T06:12:32;6.50;;;5.10;;
7177;SDS011;3630;42.146;24.756;2023-02-01T06:14:59;5.27;;;4.60;;
7177;SDS011;3630;42.146;24.756;2023-02-01T06:17:26;6.10;;;5.10;;
7177;SDS011;3630;42.146;24.756;2023-02-01T06:19:53;5.73;;;4.73;;
7177;SDS011;3630;42.146;24.756;2023-02-01T06:22:19;5.60;;;4.60;;
7177;SDS011;3630;42.146;24.756;2023-02-01T06:24:48;5.27;;;4.77;;
7177;SDS011;3630;42.146;24.756;2023-02-01T06:27:20;8.57;;;4.60;;
7177;SDS011;3630;42.146;24.756;2023-02-01T06:29:47;6.87;;;4.37;;
7177;SDS011;3630;42.146;24.756;2023-02-01T06:32:14;7.13;;;4.90;;
7177;SDS011;3630;42.146;24.756;2023-02-01T06:34:42;5.93;;;5.07;;
7177;SDS011;3630;42.146;24.756;2023-02-01T06:37:09;6.20;;;5.27;;
7177;SDS011;3630;42.146;24.756;2023-02-01T06:39:36;5.30;;;4.40;;
7177;SDS011;3630;42.146;24.756;2023-02-01T06:42:04;5.20;;;4.70;;
7177;SDS011;3630;42.146;24.756;2023-02-01T06:44:31;5.73;;;4.80;;
7177;SDS011;3630;42.146;24.756;2023-02-01T06:46:58;8.10;;;4.47;;
7177;SDS011;3630;42.146;24.756;2023-02-01T06:49:24;5.90;;;4.50;;
7177;SDS011;3630;42.146;24.756;2023-02-01T06:51:51;5.47;;;4.87;;
7177;SDS011;3630;42.146;24.756;2023-02-01T06:54:18;6.63;;;4.53;;
7177;SDS011;3630;42.146;24.756;2023-02-01T06:56:45;6.97;;;4.30;;
7177;SDS011;3630;42.146;24.756;2023-02-01T06:59:13;4.37;;;3.73;;
7177;SDS011;3630;42.146;24.756;2023-02-01T07:01:40;6.17;;;4.00;;
7177;SDS011;3630;42.146;24.756;2023-02-01T07:04:08;6.10;;;4.10;;
7177;SDS011;3630;42.146;24.756;2023-02-01T07:06:36;6.83;;;4.33;;
7177;SDS011;3630;42.146;24.756;2023-02-01T07:09:03;5.03;;;4.53;;
7177;SDS011;3630;42.146;24.756;2023-02-01T07:11:30;6.70;;;5.23;;
7177;SDS011;3630;42.146;24.756;2023-02-01T07:13:57;8.40;;;5.20;;
7177;SDS011;3630;42.146;24.756;2023-02-01T07:16:25;5.50;;;5.00;;
7177;SDS011;3630;42.146;24.756;2023-02-01T07:18:52;8.20;;;4.83;;
7177;SDS011;3630;42.146;24.756;2023-02-01T07:21:19;9.93;;;5.70;;
7177;SDS011;3630;42.146;24.756;2023-02-01T07:23:47;6.03;;;5.43;;
7177;SDS011;3630;42.146;24.756;2023-02-01T07:26:14;5.67;;;4.50;;
7177;SDS011;3630;42.146;24.756;2023-02-01T07:28:42;6.13;;;5.30;;
7177;SDS011;3630;42.146;24.756;2023-02-01T07:31:09;5.20;;;4.70;;
7177;SDS011;3630;42.146;24.756;2023-02-01T07:33:39;5.90;;;4.40;;
7177;SDS011;3630;42.146;24.756;2023-02-01T07:36:07;6.70;;;4.50;;
7177;SDS011;3630;42.146;24.756;2023-02-01T07:38:38;5.83;;;4.50;;
7177;SDS011;3630;42.146;24.756;2023-02-01T07:41:05;6.80;;;4.63;;
7177;SDS011;3630;42.146;24.756;2023-02-01T07:43:33;5.43;;;4.00;;
7177;SDS011;3630;42.146;24.756;2023-02-01T07:46:01;4.60;;;4.20;;
7177;SDS011;3630;42.146;24.756;2023-02-01T07:48:29;5.97;;;4.50;;
7177;SDS011;3630;42.146;24.756;2023-02-01T07:50:58;4.83;;;4.10;;
7177;SDS011;3630;42.146;24.756;2023-02-01T07:53:26;6.37;;;4.50;;
7177;SDS011;3630;42.146;24.756;2023-02-01T07:55:54;5.33;;;4.57;;
7177;SDS011;3630;42.146;24.756;2023-02-01T07:58:22;8.63;;;4.63;;
7177;SDS011;3630;42.146;24.756;2023-02-01T08:00:49;5.57;;;4.93;;
7177;SDS011;3630;42.146;24.756;2023-02-01T08:03:33;7.77;;;5.50;;
7177;SDS011;3630;42.146;24.756;2023-02-01T08:06:01;5.87;;;4.77;;
7177;SDS011;3630;42.146;24.756;2023-02-01T08:08:28;5.40;;;4.70;;
7177;SDS011;3630;42.146;24.756;2023-02-01T08:10:56;4.97;;;4.47;;
7177;SDS011;3630;42.146;24.756;2023-02-01T08:13:23;7.43;;;5.00;;
7177;SDS011;3630;42.146;24.756;2023-02-01T08:15:50;8.70;;;5.93;;
7177;SDS011;3630;42.146;24.756;2023-02-01T08:18:17;5.87;;;4.50;;
7177;SDS011;3630;42.146;24.756;2023-02-01T08:20:44;5.23;;;4.73;;
7177;SDS011;3630;42.146;24.756;2023-02-01T08:23:14;5.73;;;5.20;;
7177;SDS011;3630;42.146;24.756;2023-02-01T08:25:40;6.73;;;4.83;;
7177;SDS011;3630;42.146;24.756;2023-02-01T08:28:07;4.93;;;4.40;;
7177;SDS011;3630;42.146;24.756;2023-02-01T08:30:36;5.63;;;5.10;;
7177;SDS011;3630;42.146;24.756;2023-02-01T08:33:03;5.17;;;4.60;;
7177;SDS011;3630;42.146;24.756;2023-02-01T08:35:31;6.90;;;5.00;;
7177;SDS011;3630;42.146;24.756;2023-02-01T08:37:57;9.88;;;6.35;;
7177;SDS011;3630;42.146;24.756;2023-02-01T08:40:26;5.77;;;5.10;;
7177;SDS011;3630;42.146;24.756;2023-02-01T08:42:53;7.70;;;5.20;;
7177;SDS011;3630;42.146;24.756;2023-02-01T08:45:20;6.60;;;4.93;;
7177;SDS011;3630;42.146;24.756;2023-02-01T08:47:49;7.57;;;4.80;;
7177;SDS011;3630;42.146;24.756;2023-02-01T08:50:17;5.90;;;4.70;;
7177;SDS011;3630;42.146;24.756;2023-02-01T08:52:44;6.67;;;5.07;;
7177;SDS011;3630;42.146;24.756;2023-02-01T08:55:11;7.80;;;4.83;;
7177;SDS011;3630;42.146;24.756;2023-02-01T08:57:40;6.13;;;5.17;;
7177;SDS011;3630;42.146;24.756;2023-02-01T09:00:08;10.97;;;4.77;;
7177;SDS011;3630;42.146;24.756;2023-02-01T09:02:38;7.80;;;4.73;;
7177;SDS011;3630;42.146;24.756;2023-02-01T09:05:05;7.80;;;5.20;;
7177;SDS011;3630;42.146;24.756;2023-02-01T09:07:33;7.40;;;5.77;;
7177;SDS011;3630;42.146;24.756;2023-02-01T09:10:00;10.30;;;6.33;;
7177;SDS011;3630;42.146;24.756;2023-02-01T09:12:28;8.20;;;6.03;;
7177;SDS011;3630;42.146;24.756;2023-02-01T09:14:57;7.40;;;5.67;;
7177;SDS011;3630;42.146;24.756;2023-02-01T09:17:25;6.70;;;5.90;;
7177;SDS011;3630;42.146;24.756;2023-02-01T09:19:52;6.50;;;5.57;;
7177;SDS011;3630;42.146;24.756;2023-02-01T09:22:18;9.13;;;5.67;;
7177;SDS011;3630;42.146;24.756;2023-02-01T09:24:46;8.47;;;6.10;;
7177;SDS011;3630;42.146;24.756;2023-02-01T09:27:12;9.23;;;5.37;;
7177;SDS011;3630;42.146;24.756;2023-02-01T09:29:39;5.77;;;5.17;;
7177;SDS011;3630;42.146;24.756;2023-02-01T09:32:07;5.87;;;4.73;;
7177;SDS011;3630;42.146;24.756;2023-02-01T09:34:34;7.83;;;4.87;;
7177;SDS011;3630;42.146;24.756;2023-02-01T09:37:01;5.93;;;4.07;;
7177;SDS011;3630;42.146;24.756;2023-02-01T09:39:28;5.40;;;4.70;;
7177;SDS011;3630;42.146;24.756;2023-02-01T09:41:58;5.03;;;4.60;;
7177;SDS011;3630;42.146;24.756;2023-02-01T09:44:55;6.63;;;4.60;;
7177;SDS011;3630;42.146;24.756;2023-02-01T09:47:31;6.40;;;4.77;;
7177;SDS011;3630;42.146;24.756;2023-02-01T09:49:59;6.53;;;4.10;;
7177;SDS011;3630;42.146;24.756;2023-02-01T09:52:30;5.67;;;3.33;;
7177;SDS011;3630;42.146;24.756;2023-02-01T09:55:03;3.47;;;2.73;;
7177;SDS011;3630;42.146;24.756;2023-02-01T09:57:40;6.03;;;3.50;;
7177;SDS011;3630;42.146;24.756;2023-02-01T10:00:16;6.23;;;3.97;;
7177;SDS011;3630;42.146;24.756;2023-02-01T10:02:49;5.40;;;3.10;;
7177;SDS011;3630;42.146;24.756;2023-02-01T10:05:26;4.73;;;3.07;;
7177;SDS011;3630;42.146;24.756;2023-02-01T10:08:08;2.83;;;2.60;;
7177;SDS011;3630;42.146;24.756;2023-02-01T10:10:44;5.00;;;3.23;;
7177;SDS011;3630;42.146;24.756;2023-02-01T10:13:20;4.83;;;2.93;;
7177;SDS011;3630;42.146;24.756;2023-02-01T10:16:11;4.53;;;3.25;;
7177;SDS011;3630;42.146;24.756;2023-02-01T10:18:55;3.83;;;3.27;;
7177;SDS011;3630;42.146;24.756;2023-02-01T10:21:34;5.63;;;3.67;;
7177;SDS011;3630;42.146;24.756;2023-02-01T10:24:12;7.10;;;3.63;;
7177;SDS011;3630;42.146;24.756;2023-02-01T10:26:51;3.47;;;3.00;;
7177;SDS011;3630;42.146;24.756;2023-02-01T10:29:24;4.97;;;3.60;;
7177;SDS011;3630;42.146;24.756;2023-02-01T10:31:57;4.50;;;3.03;;
7177;SDS011;3630;42.146;24.756;2023-02-01T10:34:26;6.90;;;4.00;;
7177;SDS011;3630;42.146;24.756;2023-02-01T10:36:56;3.77;;;3.40;;
7177;SDS011;3630;42.146;24.756;2023-02-01T10:39:26;7.07;;;3.73;;
7177;SDS011;3630;42.146;24.756;2023-02-01T10:41:54;4.47;;;3.10;;
7177;SDS011;3630;42.146;24.756;2023-02-01T10:44:22;4.30;;;3.00;;
7177;SDS011;3630;42.146;24.756;2023-02-01T10:46:52;4.67;;;3.70;;
7177;SDS011;3630;42.146;24.756;2023-02-01T10:49:20;5.97;;;4.50;;
7177;SDS011;3630;42.146;24.756;2023-02-01T10:51:53;3.60;;;3.30;;
7177;SDS011;3630;42.146;24.756;2023-02-01T10:54:31;3.53;;;3.10;;
7177;SDS011;3630;42.146;24.756;2023-02-01T10:56:59;3.53;;;2.87;;
7177;SDS011;3630;42.146;24.756;2023-02-01T10:59:27;4.93;;;3.50;;
7177;SDS011;3630;42.146;24.756;2023-02-01T11:01:58;3.33;;;2.90;;
7177;SDS011;3630;42.146;24.756;2023-02-01T11:04:27;4.67;;;3.00;;
7177;SDS011;3630;42.146;24.756;2023-02-01T11:07:06;5.37;;;4.30;;
7177;SDS011;3630;42.146;24.756;2023-02-01T11:09:35;4.60;;;3.10;;
7177;SDS011;3630;42.146;24.756;2023-02-01T11:12:10;4.30;;;3.00;;
7177;SDS011;3630;42.146;24.756;2023-02-01T11:14:50;2.27;;;2.10;;
7177;SDS011;3630;42.146;24.756;2023-02-01T11:17:26;5.03;;;2.60;;
7177;SDS011;3630;42.146;24.756;2023-02-01T11:19:58;3.20;;;2.83;;
7177;SDS011;3630;42.146;24.756;2023-02-01T11:22:27;3.90;;;2.78;;
7177;SDS011;3630;42.146;24.756;2023-02-01T11:24:55;3.50;;;2.80;;
7177;SDS011;3630;42.146;24.756;2023-02-01T11:27:23;4.90;;;2.90;;
7177;SDS011;3630;42.146;24.756;2023-02-01T11:29:52;2.90;;;2.70;;
7177;SDS011;3630;42.146;24.756;2023-02-01T11:32:22;2.97;;;2.63;;
7177;SDS011;3630;42.146;24.756;2023-02-01T11:34:53;3.30;;;2.80;;
7177;SDS011;3630;42.146;24.756;2023-02-01T11:37:23;3.23;;;2.60;;
7177;SDS011;3630;42.146;24.756;2023-02-01T11:39:55;4.00;;;2.90;;
7177;SDS011;3630;42.146;24.756;2023-02-01T11:42:24;3.33;;;2.67;;
7177;SDS011;3630;42.146;24.756;2023-02-01T11:45:07;3.13;;;2.77;;
7177;SDS011;3630;42.146;24.756;2023-02-01T11:47:43;6.47;;;2.93;;
7177;SDS011;3630;42.146;24.756;2023-02-01T11:50:12;4.03;;;2.50;;
7177;SDS011;3630;42.146;24.756;2023-02-01T11:52:46;3.63;;;2.33;;
7177;SDS011;3630;42.146;24.756;2023-02-01T11:55:37;3.00;;;2.70;;
7177;SDS011;3630;42.146;24.756;2023-02-01T11:58:16;4.33;;;3.40;;
7177;SDS011;3630;42.146;24.756;2023-02-01T12:00:57;5.70;;;2.60;;
7177;SDS011;3630;42.146;24.756;2023-02-01T12:06:36;2.93;;;2.60;;
7177;SDS011;3630;42.146;24.756;2023-02-01T12:09:17;4.80;;;2.57;;
7177;SDS011;3630;42.146;24.756;2023-02-01T12:11:59;3.53;;;2.20;;
7177;SDS011;3630;42.146;24.756;2023-02-01T12:14:41;2.63;;;2.23;;
7177;SDS011;3630;42.146;24.756;2023-02-01T12:17:45;3.80;;;2.70;;
7177;SDS011;3630;42.146;24.756;2023-02-01T12:20:23;2.60;;;2.23;;
7177;SDS011;3630;42.146;24.756;2023-02-01T12:23:12;5.00;;;2.90;;
7177;SDS011;3630;42.146;24.756;2023-02-01T12:26:01;10.53;;;2.47;;
7177;SDS011;3630;42.146;24.756;2023-02-01T12:28:39;2.70;;;2.50;;
7177;SDS011;3630;42.146;24.756;2023-02-01T12:31:24;3.93;;;2.80;;
7177;SDS011;3630;42.146;24.756;2023-02-01T12:34:17;5.03;;;2.50;;
7177;SDS011;3630;42.146;24.756;2023-02-01T12:36:56;2.63;;;2.43;;
7177;SDS011;3630;42.146;24.756;2023-02-01T12:39:31;4.13;;;2.37;;
7177;SDS011;3630;42.146;24.756;2023-02-01T12:42:04;4.37;;;2.50;;
7177;SDS011;3630;42.146;24.756;2023-02-01T12:44:42;4.13;;;2.40;;
7177;SDS011;3630;42.146;24.756;2023-02-01T12:47:16;3.37;;;2.70;;
7177;SDS011;3630;42.146;24.756;2023-02-01T12:49:52;3.70;;;2.63;;
7177;SDS011;3630;42.146;24.756;2023-02-01T12:52:26;2.57;;;2.37;;
7177;SDS011;3630;42.146;24.756;2023-02-01T12:55:01;5.80;;;2.70;;
7177;SDS011;3630;42.146;24.756;2023-02-01T12:57:33;2.50;;;2.30;;
7177;SDS011;3630;42.146;24.756;2023-02-01T13:00:07;4.97;;;2.47;;
7177;SDS011;3630;42.146;24.756;2023-02-01T13:02:49;3.43;;;2.57;;
7177;SDS011;3630;42.146;24.756;2023-02-01T13:05:20;4.60;;;2.53;;
7177;SDS011;3630;42.146;24.756;2023-02-01T13:07:51;4.50;;;2.43;;
7177;SDS011;3630;42.146;24.756;2023-02-01T13:10:24;2.87;;;2.50;;
7177;SDS011;3630;42.146;24.756;2023-02-01T13:13:00;5.10;;;3.20;;
7177;SDS011;3630;42.146;24.756;2023-02-01T13:15:33;3.03;;;2.30;;
7177;SDS011;3630;42.146;24.756;2023-02-01T13:18:05;2.97;;;2.70;;
7177;SDS011;3630;42.146;24.756;2023-02-01T13:20:37;3.40;;;3.10;;
7177;SDS011;3630;42.146;24.756;2023-02-01T13:23:14;2.83;;;2.57;;
7177;SDS011;3630;42.146;24.756;2023-02-01T13:25:49;4.47;;;3.30;;
7177;SDS011;3630;42.146;24.756;2023-02-01T13:28:18;5.77;;;2.87;;
7177;SDS011;3630;42.146;24.756;2023-02-01T13:31:09;5.07;;;3.23;;
7177;SDS011;3630;42.146;24.756;2023-02-01T13:33:57;3.07;;;2.67;;
7177;SDS011;3630;42.146;24.756;2023-02-01T13:36:53;3.20;;;2.60;;
7177;SDS011;3630;42.146;24.756;2023-02-01T13:39:35;5.17;;;2.70;;
7177;SDS011;3630;42.146;24.756;2023-02-01T13:42:13;4.20;;;2.83;;
7177;SDS011;3630;42.146;24.756;2023-02-01T13:44:44;4.60;;;2.93;;
7177;SDS011;3630;42.146;24.756;2023-02-01T13:47:18;6.07;;;4.97;;
7177;SDS011;3630;42.146;24.756;2023-02-01T13:49:51;4.00;;;2.60;;
7177;SDS011;3630;42.146;24.756;2023-02-01T13:52:23;5.80;;;3.03;;
7177;SDS011;3630;42.146;24.756;2023-02-01T13:58:03;2.70;;;2.50;;
7177;SDS011;3630;42.146;24.756;2023-02-01T14:00:32;5.03;;;2.90;;
7177;SDS011;3630;42.146;24.756;2023-02-01T14:08:45;3.70;;;3.13;;
7177;SDS011;3630;42.146;24.756;2023-02-01T14:11:34;4.93;;;3.30;;
7177;SDS011;3630;42.146;24.756;2023-02-01T14:23:22;3.20;;;2.67;;
7177;SDS011;3630;42.146;24.756;2023-02-01T14:28:46;3.50;;;2.87;;
7177;SDS011;3630;42.146;24.756;2023-02-01T14:31:34;3.60;;;3.00;;
7177;SDS011;3630;42.146;24.756;2023-02-01T14:34:13;6.77;;;2.97;;
7177;SDS011;3630;42.146;24.756;2023-02-01T14:36:44;3.77;;;3.20;;
7177;SDS011;3630;42.146;24.756;2023-02-01T14:39:22;8.43;;;2.80;;
7177;SDS011;3630;42.146;24.756;2023-02-01T14:41:54;2.63;;;2.27;;
7177;SDS011;3630;42.146;24.756;2023-02-01T14:44:25;6.03;;;3.30;;
7177;SDS011;3630;42.146;24.756;2023-02-01T14:47:07;4.05;;;2.97;;
7177;SDS011;3630;42.146;24.756;2023-02-01T14:49:56;3.43;;;2.60;;
7177;SDS011;3630;42.146;24.756;2023-02-01T14:52:30;4.00;;;3.10;;
7177;SDS011;3630;42.146;24.756;2023-02-01T14:55:06;4.37;;;3.10;;
7177;SDS011;3630;42.146;24.756;2023-02-01T14:57:39;3.10;;;2.87;;
7177;SDS011;3630;42.146;24.756;2023-02-01T15:00:18;3.90;;;2.97;;
7177;SDS011;3630;42.146;24.756;2023-02-01T15:02:49;3.25;;;2.92;;
7177;SDS011;3630;42.146;24.756;2023-02-01T15:05:27;3.93;;;2.70;;
7177;SDS011;3630;42.146;24.756;2023-02-01T15:07:58;3.10;;;2.80;;
7177;SDS011;3630;42.146;24.756;2023-02-01T15:10:32;5.33;;;3.43;;
7177;SDS011;3630;42.146;24.756;2023-02-01T15:13:12;3.00;;;2.70;;
7177;SDS011;3630;42.146;24.756;2023-02-01T15:15:45;4.43;;;3.00;;
7177;SDS011;3630;42.146;24.756;2023-02-01T15:18:26;7.50;;;3.40;;
7177;SDS011;3630;42.146;24.756;2023-02-01T15:20:56;4.27;;;3.30;;
7177;SDS011;3630;42.146;24.756;2023-02-01T15:23:23;4.90;;;3.20;;
7177;SDS011;3630;42.146;24.756;2023-02-01T15:25:51;3.93;;;3.00;;
7177;SDS011;3630;42.146;24.756;2023-02-01T15:28:18;5.17;;;3.37;;
7177;SDS011;3630;42.146;24.756;2023-02-01T15:30:53;7.57;;;3.30;;
7177;SDS011;3630;42.146;24.756;2023-02-01T15:33:22;3.43;;;3.03;;
7177;SDS011;3630;42.146;24.756;2023-02-01T15:35:50;5.63;;;3.40;;
7177;SDS011;3630;42.146;24.756;2023-02-01T15:41:09;4.07;;;3.40;;
7177;SDS011;3630;42.146;24.756;2023-02-01T15:43:40;6.33;;;3.50;;
7177;SDS011;3630;42.146;24.756;2023-02-01T15:46:10;3.70;;;3.27;;
7177;SDS011;3630;42.146;24.756;2023-02-01T15:48:41;6.30;;;4.03;;
7177;SDS011;3630;42.146;24.756;2023-02-01T15:51:17;4.03;;;3.63;;
7177;SDS011;3630;42.146;24.756;2023-02-01T15:53:46;3.67;;;3.10;;
7177;SDS011;3630;42.146;24.756;2023-02-01T15:56:21;5.17;;;3.20;;
7177;SDS011;3630;42.146;24.756;2023-02-01T15:58:55;5.80;;;4.03;;
7177;SDS011;3630;42.146;24.756;2023-02-01T16:01:24;6.90;;;3.80;;